Weather at Nea Kavala Polykastro Airfield [CLOSED]

Public forecast

Using degrees Celsius for public forecast. Weather courtesy of forecast.io.

Closest aviation weather report (METAR) to Nea Kavala Polykastro Airfield

Closest report is Thessaloniki Macedonia International Airport, 32.0 nm (59.3 km) SSE.

2024/05/21 07:20 (retrieved 36 minutes ago)

LGTS 210720Z 31006KT CAVOK 23/15 Q1015 NOSIG

Closest aviation forecast (TAF) to Nea Kavala Polykastro Airfield

Closest forecast is Thessaloniki Macedonia International Airport, 32.0 nm (59.3 km) SSE.

2024/05/21 06:16 (retrieved 2 hours ago)

TAF LGTS 210500Z 2106/2206 VRB03KT 9999 FEW025 TEMPO 2111/2118 17010KT